createdAt,value
2022-09-27T00:00:37.915Z,99507.03
2022-09-27T00:03:05.318Z,99511.47
2022-09-27T00:05:32.495Z,99518.66
2022-09-27T00:07:59.554Z,99525.16
2022-09-27T00:10:26.937Z,99517.63
2022-09-27T00:12:54.637Z,99527.44
2022-09-27T00:15:21.966Z,99506.28
2022-09-27T00:17:52.074Z,99528.91
2022-09-27T00:20:20.971Z,99521.34
2022-09-27T00:22:49.498Z,99515.22
2022-09-27T00:25:17.523Z,99534.03
2022-09-27T00:27:44.816Z,99525.91
2022-09-27T00:30:12.533Z,99526.88
2022-09-27T00:32:39.747Z,99514.34
2022-09-27T00:35:07.044Z,99528.50
2022-09-27T00:37:34.271Z,99532.09
2022-09-27T00:40:01.695Z,99526.03
2022-09-27T00:42:30.565Z,99521.75
2022-09-27T00:45:05.923Z,99528.72
2022-09-27T00:47:47.768Z,99531.34
2022-09-27T00:50:17.787Z,99538.69
2022-09-27T00:53:09.480Z,99527.06
2022-09-27T00:56:00.830Z,99527.75
2022-09-27T00:58:35.952Z,99524.84
2022-09-27T01:01:07.766Z,99524.44
2022-09-27T01:03:44.418Z,99542.16
2022-09-27T01:06:12.441Z,99542.69
2022-09-27T01:08:39.515Z,99540.22
2022-09-27T01:11:28.594Z,99546.00
2022-09-27T01:14:25.171Z,99545.63
2022-09-27T01:17:30.172Z,99546.38
2022-09-27T01:20:03.235Z,99546.38
2022-09-27T01:22:45.276Z,99544.84
2022-09-27T01:25:40.347Z,99536.41
2022-09-27T01:28:24.312Z,99536.13
2022-09-27T01:30:58.185Z,99537.09
2022-09-27T01:33:35.117Z,99533.78
2022-09-27T01:36:14.362Z,99527.00
2022-09-27T01:39:09.100Z,99517.16
2022-09-27T01:42:22.376Z,99528.66
2022-09-27T01:44:57.231Z,99527.13
2022-09-27T01:47:34.686Z,99528.22
2022-09-27T01:50:25.732Z,99533.06
2022-09-27T01:53:02.705Z,99521.63
2022-09-27T01:55:38.502Z,99524.38
2022-09-27T01:58:52.005Z,99526.28
2022-09-27T02:01:22.990Z,99527.66
2022-09-27T02:03:53.556Z,99490.06
2022-09-27T02:06:43.929Z,99514.91
2022-09-27T02:09:28.987Z,99508.03
2022-09-27T02:12:35.904Z,99519.28
2022-09-27T02:15:12.438Z,99525.66
2022-09-27T02:17:45.152Z,99536.19
2022-09-27T02:20:39.353Z,99536.09
2022-09-27T02:23:26.657Z,99527.09
2022-09-27T02:26:20.431Z,99533.56
2022-09-27T02:29:06.016Z,99523.38
2022-09-27T02:31:41.201Z,99535.63
2022-09-27T02:34:21.832Z,99540.84
2022-09-27T02:36:49.503Z,99537.25
2022-09-27T02:39:18.535Z,99536.69
2022-09-27T02:41:46.243Z,99530.78
2022-09-27T02:44:15.729Z,99541.13
2022-09-27T02:46:48.424Z,99540.06
2022-09-27T02:49:38.355Z,99540.03
2022-09-27T02:52:56.087Z,99539.72
2022-09-27T02:55:42.878Z,99539.13
2022-09-27T02:59:00.291Z,99533.34
2022-09-27T03:02:01.213Z,99542.22
2022-09-27T03:04:41.877Z,99517.44
2022-09-27T03:07:09.978Z,99544.59
2022-09-27T03:09:46.403Z,99522.69
2022-09-27T03:12:14.214Z,99549.00
2022-09-27T03:14:41.983Z,99550.28
2022-09-27T03:17:30.323Z,99553.31
2022-09-27T03:20:15.956Z,99548.91
2022-09-27T03:22:50.722Z,99543.66
2022-09-27T03:25:17.975Z,99534.44
2022-09-27T03:27:45.253Z,99555.78
2022-09-27T03:30:14.163Z,99553.22
2022-09-27T03:32:45.439Z,99558.66
2022-09-27T03:35:31.501Z,99561.69
2022-09-27T03:37:58.729Z,99564.41
2022-09-27T03:40:25.943Z,99563.31
2022-09-27T03:42:53.057Z,99560.13
2022-09-27T03:45:20.149Z,99559.59
2022-09-27T03:47:48.166Z,99566.34
2022-09-27T03:50:15.353Z,99555.00
2022-09-27T03:52:44.100Z,99543.34
2022-09-27T03:55:12.518Z,99546.47
2022-09-27T03:57:40.325Z,99552.47
2022-09-27T04:00:09.723Z,99550.72
2022-09-27T04:02:40.731Z,99558.31
2022-09-27T04:05:24.804Z,99555.81
2022-09-27T04:07:57.280Z,99563.00
2022-09-27T04:10:25.060Z,99559.75
2022-09-27T04:12:52.463Z,99570.44
2022-09-27T04:15:22.432Z,99564.34
2022-09-27T04:17:50.030Z,99557.16
2022-09-27T04:20:46.108Z,99570.09
2022-09-27T04:23:14.780Z,99567.47
2022-09-27T04:25:50.230Z,99553.28
2022-09-27T04:28:37.548Z,99565.94
2022-09-27T04:31:05.015Z,99547.16
2022-09-27T04:33:55.792Z,99567.88
2022-09-27T04:36:27.688Z,99567.44
2022-09-27T04:39:16.297Z,99575.66
2022-09-27T04:41:45.522Z,99579.88
2022-09-27T04:44:13.588Z,99543.50
2022-09-27T04:46:47.169Z,99572.38
2022-09-27T04:49:15.942Z,99570.28
2022-09-27T04:51:44.591Z,99573.91
2022-09-27T04:54:11.659Z,99577.41
2022-09-27T04:56:48.894Z,99559.16
2022-09-27T04:59:16.322Z,99581.47
2022-09-27T05:01:43.584Z,99559.81
2022-09-27T05:04:30.030Z,99577.28
2022-09-27T05:06:57.534Z,99581.66
2022-09-27T05:09:35.781Z,99586.56
2022-09-27T05:12:03.364Z,99580.47
2022-09-27T05:14:33.138Z,99573.50
2022-09-27T05:17:22.391Z,99571.38
2022-09-27T05:20:19.555Z,99579.94
2022-09-27T05:22:55.905Z,99584.91
2022-09-27T05:25:23.204Z,99569.84
2022-09-27T05:27:53.065Z,99578.91
2022-09-27T05:30:20.788Z,99577.16
2022-09-27T05:32:51.501Z,99578.81
2022-09-27T05:35:38.588Z,99580.69
2022-09-27T05:38:07.157Z,99577.31
2022-09-27T05:40:41.308Z,99574.44
2022-09-27T05:43:09.792Z,99561.25
2022-09-27T05:45:37.469Z,99559.59
2022-09-27T05:48:06.797Z,99568.16
2022-09-27T05:50:41.266Z,99561.69
2022-09-27T05:53:09.941Z,99560.06
2022-09-27T05:55:37.609Z,99553.06
2022-09-27T05:58:08.069Z,99550.50
2022-09-27T06:00:48.754Z,99557.16
2022-09-27T06:03:35.143Z,99524.47
2022-09-27T06:06:31.624Z,99556.81
2022-09-27T06:11:27.693Z,99556.13
2022-09-27T06:13:54.872Z,99542.13
2022-09-27T06:16:22.795Z,99546.13
2022-09-27T06:18:50.014Z,99546.44
2022-09-27T06:21:18.681Z,99541.88
2022-09-27T06:23:55.909Z,99542.25
2022-09-27T06:26:35.358Z,99548.81
2022-09-27T06:29:15.361Z,99545.19
2022-09-27T06:31:50.685Z,99540.72
2022-09-27T06:34:27.227Z,99536.75
2022-09-27T06:36:54.597Z,99535.19
2022-09-27T06:39:21.724Z,99542.56
2022-09-27T06:42:00.969Z,99504.69
2022-09-27T06:44:50.484Z,99541.56
2022-09-27T06:47:44.329Z,99518.88
2022-09-27T06:50:25.003Z,99530.06
2022-09-27T06:52:52.216Z,99529.56
2022-09-27T06:55:20.164Z,99510.28
2022-09-27T06:58:05.971Z,99538.81
2022-09-27T07:00:33.085Z,99534.38
2022-09-27T07:03:20.055Z,99521.84
2022-09-27T07:06:22.905Z,99539.50
2022-09-27T07:09:06.862Z,99537.16
2022-09-27T07:11:37.332Z,99539.47
2022-09-27T07:14:08.275Z,99541.66
2022-09-27T07:16:35.473Z,99542.25
2022-09-27T07:19:07.685Z,99536.69
2022-09-27T07:21:34.850Z,99544.28
2022-09-27T07:24:02.400Z,99544.94
2022-09-27T07:26:29.714Z,99543.59
2022-09-27T07:28:57.294Z,99539.69
2022-09-27T07:31:26.885Z,99545.91
2022-09-27T07:33:54.399Z,99539.44
2022-09-27T07:36:21.602Z,99502.53
2022-09-27T07:38:48.803Z,99537.59
2022-09-27T07:41:18.854Z,99542.16
2022-09-27T07:43:46.012Z,99536.03
2022-09-27T07:46:14.600Z,99535.75
2022-09-27T07:49:14.104Z,99535.03
2022-09-27T07:52:15.569Z,99535.13
2022-09-27T07:55:02.908Z,99529.91
2022-09-27T07:57:40.221Z,99532.84
2022-09-27T08:00:10.437Z,99514.63
2022-09-27T08:02:41.620Z,99532.88
2022-09-27T08:05:10.917Z,99523.44
2022-09-27T08:07:39.583Z,99543.06
2022-09-27T08:10:09.047Z,99516.69
2022-09-27T08:12:38.228Z,99540.16
2022-09-27T08:15:06.017Z,99536.50
2022-09-27T08:17:34.145Z,99530.03
2022-09-27T08:20:08.182Z,99533.22
2022-09-27T08:22:53.479Z,99530.59
2022-09-27T08:25:34.947Z,99534.25
2022-09-27T08:28:22.836Z,99533.56
2022-09-27T08:31:01.256Z,99539.72
2022-09-27T08:33:32.340Z,99524.25
2022-09-27T08:36:01.879Z,99534.66
2022-09-27T08:38:29.165Z,99528.53
2022-09-27T08:41:01.578Z,99521.31
2022-09-27T08:43:41.833Z,99523.28
2022-09-27T08:46:54.154Z,99526.88
2022-09-27T08:49:31.329Z,99530.69
2022-09-27T08:52:00.164Z,99532.31
2022-09-27T08:54:31.516Z,99527.53
2022-09-27T08:57:03.813Z,99517.22
2022-09-27T08:59:38.227Z,99515.06
2022-09-27T09:02:13.743Z,99527.59
2022-09-27T09:04:47.048Z,99509.94
2022-09-27T09:07:29.866Z,99526.97
2022-09-27T09:10:38.803Z,99510.19
2022-09-27T09:13:32.073Z,99521.28
2022-09-27T09:16:16.171Z,99525.88
2022-09-27T09:19:22.661Z,99530.50
2022-09-27T09:22:08.211Z,99529.94
2022-09-27T09:24:47.451Z,99533.44
2022-09-27T09:27:25.424Z,99531.97
2022-09-27T09:30:26.430Z,99529.00
2022-09-27T09:33:23.327Z,99518.47
2022-09-27T09:35:59.102Z,99523.56
2022-09-27T09:38:36.149Z,99517.03
2022-09-27T09:41:20.474Z,99518.91
2022-09-27T09:43:55.944Z,99518.75
2022-09-27T09:46:58.328Z,99522.06
2022-09-27T09:49:28.948Z,99526.78
2022-09-27T09:52:05.284Z,99515.59
2022-09-27T09:54:43.826Z,99518.28
2022-09-27T09:57:11.207Z,99516.38
2022-09-27T10:00:01.754Z,99518.44
2022-09-27T10:02:38.437Z,99507.50
2022-09-27T10:05:24.944Z,99505.97
2022-09-27T10:08:05.156Z,99507.28
2022-09-27T10:10:32.842Z,99506.59
2022-09-27T10:13:20.833Z,99488.19
2022-09-27T10:16:10.595Z,99511.91
2022-09-27T10:18:44.083Z,99501.81
2022-09-27T10:21:38.205Z,99506.19
2022-09-27T10:24:18.230Z,99505.22
2022-09-27T10:27:07.139Z,99503.31
2022-09-27T10:29:39.145Z,99502.91
2022-09-27T10:32:30.928Z,99502.06
2022-09-27T10:35:42.349Z,99497.53
2022-09-27T10:38:23.068Z,99491.88
2022-09-27T10:40:55.942Z,99486.91
2022-09-27T10:43:36.679Z,99480.34
2022-09-27T10:46:31.713Z,99475.78
2022-09-27T10:49:34.256Z,99479.66
2022-09-27T10:52:06.863Z,99456.88
2022-09-27T10:54:39.848Z,99475.19
2022-09-27T10:57:20.939Z,99486.94
2022-09-27T10:59:53.634Z,99473.75
2022-09-27T11:02:26.589Z,99474.13
2022-09-27T11:05:06.742Z,99468.66
2022-09-27T11:07:37.462Z,99475.69
2022-09-27T11:10:29.481Z,99467.00
2022-09-27T11:13:08.219Z,99471.47
2022-09-27T11:15:59.391Z,99465.44
2022-09-27T11:18:45.055Z,99471.13
2022-09-27T11:21:49.925Z,99465.59
2022-09-27T11:24:56.706Z,99472.41
2022-09-27T11:27:59.613Z,99463.09
2022-09-27T11:30:44.750Z,99450.47
2022-09-27T11:33:39.636Z,99444.09
2022-09-27T11:36:41.770Z,99439.16
2022-09-27T11:39:22.694Z,99454.50
2022-09-27T11:42:26.941Z,99458.75
2022-09-27T11:48:22.368Z,99454.09
2022-09-27T11:51:04.015Z,99443.88
2022-09-27T11:53:57.384Z,99435.03
2022-09-27T11:56:25.877Z,99430.97
2022-09-27T11:59:25.990Z,99427.66
2022-09-27T12:02:07.083Z,99425.53
2022-09-27T12:04:53.363Z,99435.16
2022-09-27T12:07:45.254Z,99432.31
2022-09-27T12:10:17.221Z,99432.44
2022-09-27T12:12:51.696Z,99432.25
2022-09-27T12:15:25.857Z,99419.91
2022-09-27T12:17:59.213Z,99407.44
2022-09-27T12:20:35.561Z,99405.63
2022-09-27T12:23:18.087Z,99416.75
2022-09-27T12:26:17.817Z,99396.03
2022-09-27T12:28:55.376Z,99411.16
2022-09-27T12:31:36.064Z,99386.63
2022-09-27T12:34:06.609Z,99403.78
2022-09-27T12:36:38.776Z,99397.47
2022-09-27T12:39:27.985Z,99396.69
2022-09-27T12:42:24.206Z,99391.84
2022-09-27T12:44:53.335Z,99389.03
2022-09-27T12:47:31.580Z,99394.78
2022-09-27T12:50:10.918Z,99404.16
2022-09-27T12:52:45.545Z,99395.94
2022-09-27T12:56:07.104Z,99397.41
2022-09-27T12:58:54.823Z,99396.13
2022-09-27T13:02:21.215Z,99401.81
2022-09-27T13:05:26.124Z,99401.88
2022-09-27T13:08:12.936Z,99394.47
2022-09-27T13:11:17.200Z,99400.41
2022-09-27T13:13:44.599Z,99396.94
2022-09-27T13:16:12.410Z,99398.41
2022-09-27T13:18:53.993Z,99394.88
2022-09-27T13:21:49.005Z,99397.78
2022-09-27T13:24:41.773Z,99389.59
2022-09-27T13:27:22.427Z,99387.03
2022-09-27T13:29:50.902Z,99358.72
2022-09-27T13:32:26.359Z,99389.38
2022-09-27T13:35:13.119Z,99388.66
2022-09-27T13:37:51.809Z,99383.13
2022-09-27T13:40:30.530Z,99382.28
2022-09-27T13:43:14.220Z,99381.91
2022-09-27T13:46:00.299Z,99380.13
2022-09-27T13:48:48.108Z,99378.97
2022-09-27T13:51:36.222Z,99376.81
2022-09-27T13:54:10.387Z,99364.78
2022-09-27T13:56:38.448Z,99377.22
2022-09-27T13:59:12.115Z,99378.53
2022-09-27T14:01:53.143Z,99370.16
2022-09-27T14:04:36.918Z,99372.25
2022-09-27T14:07:05.392Z,99360.44
2022-09-27T14:09:41.369Z,99366.50
2022-09-27T14:12:25.455Z,99363.75
2022-09-27T14:14:55.823Z,99352.84
2022-09-27T14:17:23.892Z,99361.44
2022-09-27T14:19:51.289Z,99360.94
2022-09-27T14:22:21.639Z,99365.97
2022-09-27T14:24:57.976Z,99371.50
2022-09-27T14:27:35.816Z,99367.44
2022-09-27T14:30:25.076Z,99356.88
2022-09-27T14:33:34.468Z,99368.44
2022-09-27T14:36:46.985Z,99374.81
2022-09-27T14:39:32.528Z,99373.06
2022-09-27T14:42:06.680Z,99374.72
2022-09-27T14:44:35.493Z,99359.22
2022-09-27T14:47:17.393Z,99360.44
2022-09-27T14:49:53.012Z,99358.53
2022-09-27T14:52:30.271Z,99371.31
2022-09-27T14:54:59.798Z,99362.91
2022-09-27T14:57:30.165Z,99340.19
2022-09-27T14:59:58.198Z,99345.38
2022-09-27T15:02:26.570Z,99356.16
2022-09-27T15:04:54.966Z,99356.31
2022-09-27T15:07:23.205Z,99342.00
2022-09-27T15:09:51.904Z,99348.31
2022-09-27T15:12:27.597Z,99352.09
2022-09-27T15:14:58.353Z,99355.50
2022-09-27T15:17:25.749Z,99356.88
2022-09-27T15:20:01.573Z,99349.63
2022-09-27T15:22:43.577Z,99347.50
2022-09-27T15:25:25.211Z,99344.16
2022-09-27T15:27:56.081Z,99345.94
2022-09-27T15:30:36.653Z,99325.00
2022-09-27T15:33:05.340Z,99339.84
2022-09-27T15:35:35.234Z,99339.25
2022-09-27T15:38:22.249Z,99333.47
2022-09-27T15:40:49.384Z,99347.56
2022-09-27T15:43:31.651Z,99323.75
2022-09-27T15:46:03.203Z,99308.97
2022-09-27T15:48:32.701Z,99322.78
2022-09-27T15:51:00.172Z,99312.34
2022-09-27T15:53:33.619Z,99329.59
2022-09-27T15:56:02.639Z,99328.75
2022-09-27T15:58:31.634Z,99323.75
2022-09-27T16:01:06.069Z,99322.31
2022-09-27T16:03:33.465Z,99323.00
2022-09-27T16:06:03.681Z,99314.69
2022-09-27T16:08:30.959Z,99315.75
2022-09-27T16:10:59.763Z,99291.91
2022-09-27T16:13:32.395Z,99289.03
2022-09-27T16:16:01.835Z,99304.25
2022-09-27T16:18:30.805Z,99307.84
2022-09-27T16:20:59.080Z,99296.97
2022-09-27T16:23:26.762Z,99277.59
2022-09-27T16:25:54.274Z,99296.47
2022-09-27T16:28:21.692Z,99283.47
2022-09-27T16:30:49.063Z,99298.22
2022-09-27T16:33:16.356Z,99305.56
2022-09-27T16:35:43.421Z,99287.63
2022-09-27T16:38:10.969Z,99293.88
2022-09-27T16:40:38.296Z,99297.22
2022-09-27T16:43:07.619Z,99282.28
2022-09-27T16:45:36.518Z,99289.53
2022-09-27T16:48:03.943Z,99280.75
2022-09-27T16:50:49.733Z,99284.59
2022-09-27T16:53:16.879Z,99292.50
2022-09-27T16:55:44.005Z,99282.59
2022-09-27T16:58:11.324Z,99286.63
2022-09-27T17:00:40.785Z,99286.63
2022-09-27T17:03:09.411Z,99287.06
2022-09-27T17:05:36.712Z,99287.56
2022-09-27T17:08:05.742Z,99274.31
2022-09-27T17:10:32.944Z,99271.06
2022-09-27T17:13:01.667Z,99272.13
2022-09-27T17:15:29.614Z,99270.16
2022-09-27T17:17:56.969Z,99267.56
2022-09-27T17:20:24.253Z,99252.59
2022-09-27T17:22:51.461Z,99254.94
2022-09-27T17:25:18.670Z,99274.47
2022-09-27T17:27:45.844Z,99255.91
2022-09-27T17:30:13.084Z,99241.91
2022-09-27T17:32:40.657Z,99260.34
2022-09-27T17:35:09.637Z,99257.66
2022-09-27T17:37:36.928Z,99260.00
2022-09-27T17:40:05.268Z,99252.00
2022-09-27T17:42:33.720Z,99251.50
2022-09-27T17:45:01.183Z,99254.13
2022-09-27T17:47:51.524Z,99248.28
2022-09-27T17:50:24.759Z,99248.44
2022-09-27T17:52:53.666Z,99242.81
2022-09-27T17:55:24.252Z,99234.28
2022-09-27T17:57:51.790Z,99239.00
2022-09-27T18:00:20.519Z,99223.88
2022-09-27T18:02:48.540Z,99235.34
2022-09-27T18:05:16.286Z,99230.38
2022-09-27T18:07:43.613Z,99225.88
2022-09-27T18:10:11.872Z,99217.25
2022-09-27T18:12:39.524Z,99224.19
2022-09-27T18:15:07.876Z,99204.31
2022-09-27T18:17:36.928Z,99218.06
2022-09-27T18:20:05.788Z,99187.34
2022-09-27T18:22:32.999Z,99219.22
2022-09-27T18:25:01.091Z,99210.69
2022-09-27T18:27:29.508Z,99212.22
2022-09-27T18:29:57.070Z,99203.53
2022-09-27T18:32:24.463Z,99200.19
2022-09-27T18:34:51.659Z,99196.09
2022-09-27T18:37:18.885Z,99197.28
2022-09-27T18:39:46.170Z,99195.25
2022-09-27T18:42:13.265Z,99195.19
2022-09-27T18:44:40.529Z,99197.78
2022-09-27T18:47:07.659Z,99197.38
2022-09-27T18:49:34.768Z,99191.41
2022-09-27T18:52:03.038Z,99185.19
2022-09-27T18:54:30.536Z,99174.75
2022-09-27T18:56:57.715Z,99193.56
2022-09-27T18:59:25.126Z,99189.13
2022-09-27T19:01:52.956Z,99187.59
2022-09-27T19:04:25.071Z,99176.31
2022-09-27T19:06:57.341Z,99183.59
2022-09-27T19:09:27.026Z,99178.66
2022-09-27T19:11:54.687Z,99166.31
2022-09-27T19:14:22.798Z,99172.38
2022-09-27T19:16:50.649Z,99145.47
2022-09-27T19:19:19.090Z,99163.25
2022-09-27T19:21:46.965Z,99155.66
2022-09-27T19:24:15.234Z,99120.38
2022-09-27T19:26:42.696Z,99136.63
2022-09-27T19:29:10.289Z,99141.50
2022-09-27T19:31:37.618Z,99132.00
2022-09-27T19:34:04.848Z,99134.75
2022-09-27T19:36:31.955Z,99103.66
2022-09-27T19:38:59.982Z,99110.56
2022-09-27T19:41:27.504Z,99111.38
2022-09-27T19:43:56.025Z,99117.94
2022-09-27T19:46:24.904Z,99105.50
2022-09-27T19:48:53.030Z,99113.47
2022-09-27T19:51:25.667Z,99090.31
2022-09-27T19:53:53.877Z,99103.28
2022-09-27T19:56:22.214Z,99093.31
2022-09-27T19:58:49.513Z,99093.22
2022-09-27T20:01:20.579Z,99096.47
2022-09-27T20:03:49.454Z,99092.28
2022-09-27T20:06:18.947Z,99066.78
2022-09-27T20:08:48.024Z,99088.97
2022-09-27T20:11:21.086Z,99089.84
2022-09-27T20:13:49.019Z,99093.88
2022-09-27T20:16:19.419Z,99060.56
2022-09-27T20:18:48.851Z,99070.44
2022-09-27T20:21:16.998Z,99083.50
2022-09-27T20:23:44.300Z,99078.78
2022-09-27T20:26:14.115Z,99069.13
2022-09-27T20:29:01.149Z,99073.09
2022-09-27T20:31:33.659Z,99080.97
2022-09-27T20:34:01.363Z,99066.31
2022-09-27T20:36:33.887Z,99064.69
2022-09-27T20:39:03.766Z,99067.16
2022-09-27T20:41:33.388Z,99061.94
2022-09-27T20:44:04.771Z,99065.38
2022-09-27T20:46:32.876Z,99065.38
2022-09-27T20:49:03.261Z,99037.53
2022-09-27T20:51:34.539Z,99053.66
2022-09-27T20:54:03.434Z,99029.19
2022-09-27T20:56:36.005Z,99057.50
2022-09-27T20:59:06.018Z,99060.34
2022-09-27T21:01:33.191Z,99054.47
2022-09-27T21:04:02.707Z,99041.47
2022-09-27T21:06:31.593Z,99031.31
2022-09-27T21:09:00.026Z,99036.19
2022-09-27T21:11:27.612Z,99027.47
2022-09-27T21:13:54.719Z,99025.34
2022-09-27T21:16:26.268Z,99008.34
2022-09-27T21:18:55.652Z,99027.09
2022-09-27T21:21:24.362Z,98988.38
2022-09-27T21:23:59.756Z,99013.63
2022-09-27T21:26:29.585Z,99007.91
2022-09-27T21:28:59.141Z,99000.41
2022-09-27T21:31:28.552Z,98986.69
2022-09-27T21:33:59.162Z,98999.69
2022-09-27T21:36:27.719Z,98994.56
2022-09-27T21:38:54.931Z,98992.84
2022-09-27T21:41:22.575Z,98987.41
2022-09-27T21:43:49.967Z,98974.44
2022-09-27T21:46:23.545Z,98983.44
2022-09-27T21:48:53.092Z,98978.31
2022-09-27T21:51:26.180Z,98969.97
2022-09-27T21:53:55.827Z,98977.13
2022-09-27T21:56:24.942Z,98977.47
2022-09-27T21:58:52.012Z,98956.34
2022-09-27T22:01:24.907Z,98945.16
2022-09-27T22:03:54.225Z,98946.34
2022-09-27T22:06:24.557Z,98946.72
2022-09-27T22:08:52.504Z,98936.06
2022-09-27T22:11:22.385Z,98956.97
2022-09-27T22:13:49.829Z,98948.56
2022-09-27T22:16:19.360Z,98952.78
2022-09-27T22:18:48.677Z,98927.75
2022-09-27T22:21:19.965Z,98939.56
2022-09-27T22:23:47.454Z,98933.13
2022-09-27T22:26:21.747Z,98926.38
2022-09-27T22:28:48.790Z,98917.97
2022-09-27T22:31:18.696Z,98924.69
2022-09-27T22:34:00.667Z,98925.28
2022-09-27T22:36:28.769Z,98901.59
2022-09-27T22:38:56.480Z,98912.41
2022-09-27T22:41:24.346Z,98910.81
2022-09-27T22:43:54.419Z,98918.38
2022-09-27T22:46:22.319Z,98888.19
2022-09-27T22:48:49.942Z,98912.13
2022-09-27T22:51:17.598Z,98905.63
2022-09-27T22:53:45.286Z,98904.69
2022-09-27T22:56:18.294Z,98898.78
2022-09-27T22:58:47.392Z,98893.84
2022-09-27T23:01:16.656Z,98896.41
2022-09-27T23:03:44.477Z,98887.28
2022-09-27T23:06:12.236Z,98888.84
2022-09-27T23:08:39.701Z,98885.94
2022-09-27T23:11:17.967Z,98871.72
2022-09-27T23:13:45.925Z,98860.97
2022-09-27T23:16:15.047Z,98868.44
2022-09-27T23:18:43.086Z,98859.22
2022-09-27T23:21:12.120Z,98850.31
2022-09-27T23:23:42.162Z,98841.66
2022-09-27T23:26:12.042Z,98841.69
2022-09-27T23:28:39.776Z,98830.22
2022-09-27T23:31:12.168Z,98838.66
2022-09-27T23:33:45.005Z,98815.59
2022-09-27T23:36:17.953Z,98813.25
2022-09-27T23:38:46.715Z,98808.72
2022-09-27T23:41:15.500Z,98819.34
2022-09-27T23:43:42.803Z,98809.75
2022-09-27T23:46:10.474Z,98809.75
2022-09-27T23:48:38.337Z,98815.25
2022-09-27T23:51:10.113Z,98798.41
2022-09-27T23:53:38.881Z,98785.50
2022-09-27T23:56:13.072Z,98789.53
2022-09-27T23:58:42.581Z,98782.38
